createdAt,value
2023-09-08T00:01:05.313Z,41.13
2023-09-08T00:03:33.139Z,41.45
2023-09-08T00:06:01.147Z,41.60
2023-09-08T00:08:28.942Z,41.55
2023-09-08T00:10:57.627Z,41.57
2023-09-08T00:13:25.475Z,41.48
2023-09-08T00:15:53.232Z,41.49
2023-09-08T00:18:21.841Z,41.80
2023-09-08T00:20:49.668Z,41.58
2023-09-08T00:23:17.398Z,42.00
2023-09-08T00:25:45.166Z,41.73
2023-09-08T00:28:12.975Z,42.19
2023-09-08T00:30:40.691Z,41.92
2023-09-08T00:33:10.112Z,42.34
2023-09-08T00:35:38.060Z,42.35
2023-09-08T00:38:05.921Z,42.16
2023-09-08T00:40:33.792Z,42.13
2023-09-08T00:43:01.598Z,42.28
2023-09-08T00:45:31.101Z,42.20
2023-09-08T00:47:59.910Z,42.10
2023-09-08T00:50:27.832Z,42.42
2023-09-08T00:52:55.785Z,42.27
2023-09-08T00:55:24.242Z,42.34
2023-09-08T00:57:52.191Z,42.47
2023-09-08T01:00:20.036Z,42.37
2023-09-08T01:02:47.973Z,42.37
2023-09-08T01:05:15.946Z,42.37
2023-09-08T01:07:45.132Z,42.54
2023-09-08T01:10:13.900Z,42.67
2023-09-08T01:12:41.703Z,42.50
2023-09-08T01:15:10.059Z,42.57
2023-09-08T01:17:37.943Z,42.79
2023-09-08T01:20:22.726Z,42.79
2023-09-08T01:23:11.767Z,42.52
2023-09-08T01:26:10.994Z,42.57
2023-09-08T01:28:41.817Z,42.63
2023-09-08T01:31:10.448Z,42.58
2023-09-08T01:33:38.837Z,42.58
2023-09-08T01:36:06.962Z,42.84
2023-09-08T01:38:35.110Z,42.62
2023-09-08T01:41:03.105Z,43.05
2023-09-08T01:43:30.954Z,43.14
2023-09-08T01:45:58.740Z,43.17
2023-09-08T01:48:26.564Z,42.87
2023-09-08T01:50:54.323Z,43.11
2023-09-08T01:53:22.129Z,43.22
2023-09-08T01:55:50.111Z,43.13
2023-09-08T01:58:17.866Z,43.13
2023-09-08T02:00:52.280Z,43.30
2023-09-08T02:03:20.084Z,43.14
2023-09-08T02:05:48.180Z,43.17
2023-09-08T02:08:16.063Z,43.27
2023-09-08T02:10:43.804Z,43.16
2023-09-08T02:13:11.604Z,43.23
2023-09-08T02:15:39.487Z,43.44
2023-09-08T02:18:08.576Z,43.27
2023-09-08T02:20:36.506Z,43.39
2023-09-08T02:23:08.195Z,43.49
2023-09-08T02:25:36.085Z,43.55
2023-09-08T02:28:04.238Z,43.24
2023-09-08T02:30:32.533Z,43.59
2023-09-08T02:33:05.212Z,43.53
2023-09-08T02:35:39.804Z,43.27
2023-09-08T02:38:08.250Z,43.31
2023-09-08T02:40:36.141Z,43.38
2023-09-08T02:43:06.089Z,43.56
2023-09-08T02:45:36.388Z,43.63
2023-09-08T02:48:05.490Z,43.68
2023-09-08T02:50:33.568Z,43.59
2023-09-08T02:53:01.409Z,43.52
2023-09-08T02:55:29.443Z,43.44
2023-09-08T02:57:57.795Z,43.78
2023-09-08T03:00:26.602Z,43.67
2023-09-08T03:02:54.459Z,43.50
2023-09-08T03:05:22.378Z,43.51
2023-09-08T03:07:50.561Z,43.92
2023-09-08T03:10:18.704Z,43.64
2023-09-08T03:12:46.505Z,43.91
2023-09-08T03:15:14.317Z,43.64
2023-09-08T03:17:42.155Z,43.75
2023-09-08T03:20:12.191Z,44.06
2023-09-08T03:22:40.258Z,44.07
2023-09-08T03:25:08.853Z,44.14
2023-09-08T03:27:36.639Z,44.27
2023-09-08T03:30:06.904Z,44.29
2023-09-08T03:32:35.460Z,44.32
2023-09-08T03:35:05.010Z,44.16
2023-09-08T03:37:32.934Z,44.31
2023-09-08T03:40:00.851Z,44.50
2023-09-08T03:42:28.799Z,44.49
2023-09-08T03:44:56.706Z,44.36
2023-09-08T03:47:25.843Z,44.45
2023-09-08T03:49:53.823Z,44.52
2023-09-08T03:52:21.669Z,44.67
2023-09-08T03:54:49.482Z,44.56
2023-09-08T03:57:17.259Z,44.66
2023-09-08T03:59:45.764Z,44.83
2023-09-08T04:02:13.616Z,44.88
2023-09-08T04:04:41.576Z,44.87
2023-09-08T04:07:10.016Z,44.84
2023-09-08T04:09:38.168Z,44.90
2023-09-08T04:12:06.750Z,45.04
2023-09-08T04:14:35.258Z,45.01
2023-09-08T04:17:03.351Z,45.19
2023-09-08T04:19:31.475Z,45.18
2023-09-08T04:21:59.261Z,45.35
2023-09-08T04:24:27.217Z,45.36
2023-09-08T04:26:54.980Z,45.28
2023-09-08T04:29:22.749Z,45.42
2023-09-08T04:31:50.514Z,45.35
2023-09-08T04:34:19.323Z,45.50
2023-09-08T04:36:47.289Z,45.70
2023-09-08T04:39:16.740Z,45.63
2023-09-08T04:41:44.997Z,45.59
2023-09-08T04:44:12.718Z,45.66
2023-09-08T04:46:40.491Z,45.87
2023-09-08T04:49:08.277Z,45.85
2023-09-08T04:51:36.524Z,45.84
2023-09-08T04:54:05.426Z,45.82
2023-09-08T04:56:33.340Z,45.83
2023-09-08T04:59:02.121Z,45.95
2023-09-08T05:01:33.970Z,46.02
2023-09-08T05:04:03.500Z,46.08
2023-09-08T05:06:32.020Z,46.20
2023-09-08T05:09:01.236Z,46.13
2023-09-08T05:11:30.459Z,46.30
2023-09-08T05:13:59.552Z,46.25
2023-09-08T05:16:38.409Z,46.42
2023-09-08T05:19:07.831Z,46.45
2023-09-08T05:21:40.177Z,46.57
2023-09-08T05:24:09.486Z,46.56
2023-09-08T05:26:39.798Z,46.58
2023-09-08T05:29:07.722Z,46.71
2023-09-08T05:31:35.590Z,46.69
2023-09-08T05:34:04.601Z,46.75
2023-09-08T05:36:33.590Z,46.85
2023-09-08T05:39:01.613Z,46.95
2023-09-08T05:41:29.763Z,46.96
2023-09-08T05:43:58.041Z,46.98
2023-09-08T05:46:29.137Z,46.90
2023-09-08T05:48:57.092Z,47.13
2023-09-08T05:51:25.062Z,47.03
2023-09-08T05:53:54.700Z,47.26
2023-09-08T05:56:26.139Z,47.21
2023-09-08T05:58:53.933Z,47.27
2023-09-08T06:01:22.980Z,47.45
2023-09-08T06:03:51.612Z,47.45
2023-09-08T06:06:19.661Z,47.47
2023-09-08T06:08:47.537Z,47.49
2023-09-08T06:11:15.992Z,47.43
2023-09-08T06:13:43.813Z,47.67
2023-09-08T06:16:11.887Z,47.74
2023-09-08T06:18:41.867Z,47.80
2023-09-08T06:21:13.412Z,47.89
2023-09-08T06:23:41.649Z,47.98
2023-09-08T06:26:09.565Z,48.12
2023-09-08T06:28:39.156Z,48.02
2023-09-08T06:31:07.229Z,48.17
2023-09-08T06:33:35.289Z,48.01
2023-09-08T06:36:03.138Z,48.15
2023-09-08T06:38:32.734Z,47.92
2023-09-08T06:41:02.138Z,48.11
2023-09-08T06:43:30.377Z,47.75
2023-09-08T06:46:04.441Z,47.69
2023-09-08T06:48:33.788Z,47.86
2023-09-08T06:51:02.044Z,47.61
2023-09-08T06:53:32.005Z,47.70
2023-09-08T06:56:00.049Z,47.82
2023-09-08T06:58:27.989Z,47.25
2023-09-08T07:00:56.262Z,47.39
2023-09-08T07:03:25.076Z,47.20
2023-09-08T07:05:53.684Z,47.20
2023-09-08T07:08:23.428Z,47.45
2023-09-08T07:10:55.021Z,47.41
2023-09-08T07:13:23.214Z,47.22
2023-09-08T07:15:50.995Z,47.00
2023-09-08T07:18:19.177Z,47.27
2023-09-08T07:20:50.483Z,47.20
2023-09-08T07:23:20.622Z,47.23
2023-09-08T07:25:50.151Z,47.15
2023-09-08T07:28:23.579Z,46.77
2023-09-08T07:30:52.249Z,46.76
2023-09-08T07:33:20.896Z,46.93
2023-09-08T07:35:49.327Z,46.99
2023-09-08T07:38:17.027Z,47.04
2023-09-08T07:40:44.822Z,46.68
2023-09-08T07:43:13.001Z,46.53
2023-09-08T07:45:41.639Z,46.44
2023-09-08T07:48:09.652Z,46.71
2023-09-08T07:50:37.980Z,46.28
2023-09-08T07:53:05.719Z,46.28
2023-09-08T07:55:33.493Z,46.15
2023-09-08T07:58:04.710Z,46.07
2023-09-08T08:00:32.830Z,45.98
2023-09-08T08:03:01.068Z,46.01
2023-09-08T08:05:29.082Z,45.83
2023-09-08T08:07:57.011Z,45.89
2023-09-08T08:10:24.820Z,45.95
2023-09-08T08:12:52.685Z,45.68
2023-09-08T08:15:25.141Z,45.83
2023-09-08T08:17:53.459Z,45.96
2023-09-08T08:20:22.313Z,45.49
2023-09-08T08:22:50.190Z,45.56
2023-09-08T08:25:18.143Z,45.69
2023-09-08T08:27:46.239Z,45.65
2023-09-08T08:30:14.588Z,45.80
2023-09-08T08:32:45.509Z,45.75
2023-09-08T08:35:13.594Z,45.71
2023-09-08T08:37:42.057Z,45.79
2023-09-08T08:40:13.718Z,45.75
2023-09-08T08:42:43.553Z,45.67
2023-09-08T08:45:13.265Z,45.77
2023-09-08T08:47:42.534Z,45.73
2023-09-08T08:50:12.214Z,45.63
2023-09-08T08:52:41.141Z,45.51
2023-09-08T08:55:09.451Z,45.51
2023-09-08T08:57:41.040Z,45.58
2023-09-08T09:00:14.261Z,45.50
2023-09-08T09:02:45.130Z,45.88
2023-09-08T09:05:15.738Z,45.65
2023-09-08T09:07:44.557Z,45.69
2023-09-08T09:10:12.616Z,45.71
2023-09-08T09:12:40.721Z,45.40
2023-09-08T09:15:12.886Z,45.62
2023-09-08T09:17:40.838Z,45.62
2023-09-08T09:20:21.440Z,45.68
2023-09-08T09:22:50.284Z,45.88
2023-09-08T09:25:29.422Z,45.45
2023-09-08T09:28:03.636Z,45.54
2023-09-08T09:30:49.842Z,45.45
2023-09-08T09:33:18.301Z,45.59
2023-09-08T09:35:52.709Z,45.53
2023-09-08T09:38:22.368Z,45.38
2023-09-08T09:40:50.626Z,45.41
2023-09-08T09:43:22.555Z,45.43
2023-09-08T09:45:50.619Z,45.40
2023-09-08T09:48:22.560Z,45.56
2023-09-08T09:50:50.481Z,45.21
2023-09-08T09:53:21.574Z,45.24
2023-09-08T09:55:49.356Z,45.51
2023-09-08T09:58:17.273Z,45.28
2023-09-08T10:00:49.742Z,45.18
2023-09-08T10:03:19.678Z,44.97
2023-09-08T10:05:49.496Z,45.11
2023-09-08T10:08:18.038Z,44.77
2023-09-08T10:10:48.724Z,45.04
2023-09-08T10:13:24.331Z,44.77
2023-09-08T10:15:56.059Z,44.75
2023-09-08T10:18:25.640Z,44.88
2023-09-08T10:20:56.887Z,44.97
2023-09-08T10:23:41.714Z,44.66
2023-09-08T10:26:12.906Z,44.70
2023-09-08T10:28:40.688Z,44.77
2023-09-08T10:31:12.751Z,44.39
2023-09-08T10:33:43.322Z,44.57
2023-09-08T10:36:12.232Z,44.14
2023-09-08T10:38:40.010Z,44.14
2023-09-08T10:41:16.766Z,44.35
2023-09-08T10:43:58.352Z,44.01
2023-09-08T10:46:29.236Z,44.18
2023-09-08T10:49:08.099Z,43.73
2023-09-08T10:51:36.860Z,43.84
2023-09-08T10:54:05.252Z,43.99
2023-09-08T10:57:01.259Z,43.47
2023-09-08T10:59:36.622Z,43.46
2023-09-08T11:02:07.680Z,43.76
2023-09-08T11:04:36.890Z,43.88
2023-09-08T11:07:04.780Z,44.08
2023-09-08T11:09:37.786Z,43.75
2023-09-08T11:12:09.280Z,43.83
2023-09-08T11:14:37.296Z,43.43
2023-09-08T11:17:05.233Z,43.12
2023-09-08T11:19:50.859Z,43.04
2023-09-08T11:22:33.702Z,43.32
2023-09-08T11:25:07.385Z,43.37
2023-09-08T11:27:40.355Z,43.42
2023-09-08T11:30:10.074Z,43.32
2023-09-08T11:32:38.104Z,43.19
2023-09-08T11:35:14.619Z,42.94
2023-09-08T11:37:42.658Z,43.16
2023-09-08T11:40:15.240Z,42.83
2023-09-08T11:42:45.993Z,42.78
2023-09-08T11:45:15.770Z,43.29
2023-09-08T11:47:45.130Z,42.92
2023-09-08T11:50:16.697Z,43.06
2023-09-08T11:52:50.379Z,42.47
2023-09-08T11:55:20.144Z,42.74
2023-09-08T11:57:58.244Z,42.21
2023-09-08T12:00:27.509Z,42.24
2023-09-08T12:02:56.036Z,42.27
2023-09-08T12:05:28.776Z,41.90
2023-09-08T12:07:58.993Z,41.86
2023-09-08T12:10:27.215Z,42.04
2023-09-08T12:13:02.306Z,41.50
2023-09-08T12:15:35.372Z,41.48
2023-09-08T12:18:06.780Z,41.59
2023-09-08T12:20:35.653Z,41.06
2023-09-08T12:23:19.229Z,41.34
2023-09-08T12:25:52.842Z,41.28
2023-09-08T12:28:22.785Z,41.14
2023-09-08T12:30:54.915Z,41.13
2023-09-08T12:33:22.814Z,40.75
2023-09-08T12:35:53.658Z,40.66
2023-09-08T12:38:21.476Z,40.71
2023-09-08T12:40:49.527Z,40.39
2023-09-08T12:43:27.498Z,40.54
2023-09-08T12:45:57.464Z,40.39
2023-09-08T12:48:26.190Z,40.17
2023-09-08T12:50:54.117Z,40.22
2023-09-08T12:53:24.312Z,39.95
2023-09-08T12:55:52.451Z,39.97
2023-09-08T12:58:20.542Z,40.10
2023-09-08T13:00:48.246Z,39.61
2023-09-08T13:03:23.915Z,39.80
2023-09-08T13:05:56.185Z,39.69
2023-09-08T13:08:26.817Z,39.92
2023-09-08T13:10:54.651Z,39.44
2023-09-08T13:13:22.497Z,39.50
2023-09-08T13:15:50.818Z,39.28
2023-09-08T13:18:18.737Z,39.46
2023-09-08T13:20:46.678Z,39.27
2023-09-08T13:23:14.473Z,39.22
2023-09-08T13:25:43.000Z,39.06
2023-09-08T13:28:10.788Z,39.36
2023-09-08T13:30:38.565Z,39.11
2023-09-08T13:33:06.597Z,39.05
2023-09-08T13:35:34.422Z,39.18
2023-09-08T13:38:04.081Z,39.11
2023-09-08T13:40:32.267Z,39.01
2023-09-08T13:43:01.426Z,39.00
2023-09-08T13:45:29.594Z,38.81
2023-09-08T13:47:57.474Z,38.83
2023-09-08T13:50:27.611Z,38.90
2023-09-08T13:52:56.204Z,38.84
2023-09-08T13:57:59.590Z,39.36
2023-09-08T14:00:31.572Z,39.01
2023-09-08T14:03:05.316Z,39.45
2023-09-08T14:05:36.951Z,39.04
2023-09-08T14:08:16.578Z,38.76
2023-09-08T14:13:17.376Z,38.61
2023-09-08T14:15:45.205Z,38.70
2023-09-08T14:18:15.051Z,38.27
2023-09-08T14:20:43.940Z,38.40
2023-09-08T14:23:12.035Z,38.23
2023-09-08T14:25:39.885Z,38.24
2023-09-08T14:28:07.779Z,38.10
2023-09-08T14:30:36.663Z,37.96
2023-09-08T14:33:05.028Z,37.78
2023-09-08T14:35:32.852Z,37.84
2023-09-08T14:38:00.784Z,37.73
2023-09-08T14:40:28.852Z,37.72
2023-09-08T14:42:56.807Z,37.52
2023-09-08T14:45:24.567Z,37.33
2023-09-08T14:47:52.329Z,37.44
2023-09-08T14:50:20.819Z,37.05
2023-09-08T14:52:48.629Z,36.86
2023-09-08T14:55:16.468Z,36.83
2023-09-08T14:57:44.432Z,36.75
2023-09-08T15:00:13.154Z,36.79
2023-09-08T15:02:40.977Z,36.48
2023-09-08T15:05:09.730Z,36.50
2023-09-08T15:07:37.498Z,36.41
2023-09-08T15:10:05.752Z,36.36
2023-09-08T15:12:33.761Z,36.24
2023-09-08T15:15:01.578Z,36.19
2023-09-08T15:17:29.376Z,36.03
2023-09-08T15:19:57.210Z,36.21
2023-09-08T15:22:25.318Z,36.26
2023-09-08T15:24:53.076Z,36.31
2023-09-08T15:27:20.884Z,36.51
2023-09-08T15:29:48.681Z,36.28
2023-09-08T15:32:16.454Z,36.23
2023-09-08T15:34:47.954Z,35.88
2023-09-08T15:37:15.716Z,35.92
2023-09-08T15:39:43.854Z,35.91
2023-09-08T15:42:15.183Z,35.82
2023-09-08T15:44:43.170Z,35.86
2023-09-08T15:47:10.932Z,35.56
2023-09-08T15:49:38.662Z,35.48
2023-09-08T15:52:15.748Z,35.44
2023-09-08T15:54:44.655Z,35.31
2023-09-08T15:57:12.478Z,35.02
2023-09-08T15:59:40.978Z,35.40
2023-09-08T16:02:09.075Z,35.21
2023-09-08T16:04:37.161Z,35.17
2023-09-08T16:07:05.487Z,34.80
2023-09-08T16:09:33.484Z,35.17
2023-09-08T16:12:01.325Z,34.93
2023-09-08T16:14:29.981Z,34.67
2023-09-08T16:16:57.824Z,34.80
2023-09-08T16:19:25.718Z,34.68
2023-09-08T16:21:53.507Z,34.46
2023-09-08T16:24:21.275Z,34.53
2023-09-08T16:26:49.063Z,34.66
2023-09-08T16:29:16.839Z,34.89
2023-09-08T16:31:44.607Z,34.50
2023-09-08T16:34:12.475Z,34.81
2023-09-08T16:36:40.266Z,34.70
2023-09-08T16:39:08.104Z,34.73
2023-09-08T16:41:35.955Z,34.49
2023-09-08T16:44:03.784Z,34.15
2023-09-08T16:46:31.533Z,33.99
2023-09-08T16:48:59.299Z,34.11
2023-09-08T16:51:27.032Z,33.65
2023-09-08T16:53:54.873Z,33.82
2023-09-08T16:56:22.694Z,33.80
2023-09-08T16:58:51.268Z,33.56
2023-09-08T17:01:19.055Z,33.75
2023-09-08T17:03:46.961Z,33.97
2023-09-08T17:06:14.899Z,33.93
2023-09-08T17:08:42.727Z,34.14
2023-09-08T17:11:11.483Z,34.36
2023-09-08T17:13:39.548Z,34.59
2023-09-08T17:16:07.506Z,34.79
2023-09-08T17:18:35.435Z,34.90
2023-09-08T17:21:03.611Z,35.20
2023-09-08T17:23:31.496Z,35.41
2023-09-08T17:25:59.334Z,35.76
2023-09-08T17:28:27.027Z,36.11
2023-09-08T17:30:54.812Z,36.36
2023-09-08T17:33:22.769Z,36.50
2023-09-08T17:35:50.649Z,37.03
2023-09-08T17:38:18.687Z,37.25
2023-09-08T17:40:46.630Z,37.42
2023-09-08T17:43:14.539Z,37.70
2023-09-08T17:45:42.834Z,37.73
2023-09-08T17:48:10.910Z,38.12
2023-09-08T17:50:38.994Z,38.31
2023-09-08T17:53:07.004Z,38.45
2023-09-08T17:55:34.746Z,38.81
2023-09-08T17:58:02.955Z,38.74
2023-09-08T18:00:30.845Z,39.11
2023-09-08T18:02:58.799Z,39.40
2023-09-08T18:05:27.666Z,40.10
2023-09-08T18:07:55.446Z,40.54
2023-09-08T18:10:23.323Z,40.33
2023-09-08T18:12:51.145Z,40.59
2023-09-08T18:15:18.885Z,40.71
2023-09-08T18:17:48.392Z,41.21
2023-09-08T18:20:16.464Z,41.31
2023-09-08T18:22:44.245Z,41.25
2023-09-08T18:25:12.066Z,41.99
2023-09-08T18:27:39.883Z,42.02
2023-09-08T18:30:08.486Z,42.20
2023-09-08T18:32:36.824Z,41.88
2023-09-08T18:35:05.132Z,42.33
2023-09-08T18:37:33.032Z,42.15
2023-09-08T18:40:00.728Z,42.17
2023-09-08T18:42:29.349Z,42.54
2023-09-08T18:44:57.117Z,42.38
2023-09-08T18:47:24.896Z,42.47
2023-09-08T18:49:52.655Z,42.66
2023-09-08T18:52:20.410Z,43.13
2023-09-08T18:54:48.496Z,43.18
2023-09-08T18:57:16.340Z,43.29
2023-09-08T18:59:44.065Z,43.53
2023-09-08T19:02:11.867Z,43.79
2023-09-08T19:04:39.685Z,44.33
2023-09-08T19:07:07.488Z,44.22
2023-09-08T19:09:35.313Z,44.61
2023-09-08T19:12:04.098Z,44.51
2023-09-08T19:14:32.016Z,44.87
2023-09-08T19:17:01.006Z,44.98
2023-09-08T19:19:28.788Z,45.27
2023-09-08T19:21:57.045Z,45.34
2023-09-08T19:24:25.574Z,45.10
2023-09-08T19:26:53.802Z,45.41
2023-09-08T19:29:21.571Z,45.64
2023-09-08T19:31:49.382Z,45.76
2023-09-08T19:34:17.230Z,45.94
2023-09-08T19:36:44.988Z,45.80
2023-09-08T19:39:12.734Z,46.22
2023-09-08T19:41:40.542Z,46.21
2023-09-08T19:44:08.828Z,46.49
2023-09-08T19:46:39.119Z,46.68
2023-09-08T19:49:07.048Z,46.92
2023-09-08T19:51:34.896Z,46.85
2023-09-08T19:54:03.823Z,47.22
2023-09-08T19:56:31.616Z,46.92
2023-09-08T19:59:01.068Z,47.18
2023-09-08T20:01:30.892Z,47.14
2023-09-08T20:03:58.684Z,47.18
2023-09-08T20:06:27.051Z,47.47
2023-09-08T20:08:54.920Z,47.34
2023-09-08T20:11:22.776Z,47.72
2023-09-08T20:13:50.572Z,47.70
2023-09-08T20:16:18.360Z,47.90
2023-09-08T20:18:46.226Z,47.90
2023-09-08T20:21:13.953Z,48.02
2023-09-08T20:23:41.897Z,47.97
2023-09-08T20:26:09.867Z,48.17
2023-09-08T20:28:37.718Z,48.36
2023-09-08T20:31:16.456Z,48.27
2023-09-08T20:33:46.551Z,48.31
2023-09-08T20:36:18.434Z,48.53
2023-09-08T20:38:46.490Z,48.48
2023-09-08T20:41:14.441Z,48.55
2023-09-08T20:43:42.228Z,48.67
2023-09-08T20:46:10.137Z,48.71
2023-09-08T20:48:39.802Z,48.58
2023-09-08T20:51:10.792Z,48.67
2023-09-08T20:53:41.550Z,48.97
2023-09-08T20:56:11.106Z,49.02
2023-09-08T20:58:41.430Z,49.02
2023-09-08T21:01:10.612Z,49.08
2023-09-08T21:03:39.386Z,48.91
2023-09-08T21:06:08.474Z,49.30
2023-09-08T21:08:36.356Z,49.55
2023-09-08T21:11:04.055Z,49.43
2023-09-08T21:13:31.936Z,49.59
2023-09-08T21:15:59.871Z,49.64
2023-09-08T21:18:27.607Z,49.45
2023-09-08T21:20:55.437Z,49.58
2023-09-08T21:23:23.172Z,49.84
2023-09-08T21:25:51.036Z,49.88
2023-09-08T21:28:18.858Z,50.03
2023-09-08T21:30:46.560Z,49.77
2023-09-08T21:33:14.511Z,49.96
2023-09-08T21:35:42.433Z,50.13
2023-09-08T21:38:10.278Z,50.21
2023-09-08T21:40:40.671Z,50.15
2023-09-08T21:43:08.372Z,50.27
2023-09-08T21:45:36.134Z,50.14
2023-09-08T21:48:04.390Z,50.20
2023-09-08T21:50:32.846Z,50.61
2023-09-08T21:53:00.690Z,50.28
2023-09-08T21:55:28.517Z,50.53
2023-09-08T21:57:56.624Z,50.38
2023-09-08T22:00:26.185Z,50.39
2023-09-08T22:02:54.150Z,50.78
2023-09-08T22:05:22.332Z,50.62
2023-09-08T22:07:50.171Z,50.52
2023-09-08T22:10:18.102Z,50.77
2023-09-08T22:12:46.000Z,50.88
2023-09-08T22:15:13.847Z,50.71
2023-09-08T22:17:41.823Z,51.06
2023-09-08T22:20:16.770Z,50.84
2023-09-08T22:22:45.705Z,51.19
2023-09-08T22:25:13.815Z,50.98
2023-09-08T22:27:41.867Z,50.86
2023-09-08T22:30:10.421Z,50.98
2023-09-08T22:32:38.397Z,50.71
2023-09-08T22:35:06.693Z,50.84
2023-09-08T22:37:35.860Z,50.61
2023-09-08T22:40:07.008Z,50.59
2023-09-08T22:42:35.032Z,50.99
2023-09-08T22:45:03.142Z,50.89
2023-09-08T22:47:31.265Z,51.10
2023-09-08T22:50:06.929Z,51.23
2023-09-08T22:52:35.109Z,51.31
2023-09-08T22:55:17.560Z,50.89
2023-09-08T22:57:51.527Z,51.31
2023-09-08T23:00:19.600Z,51.05
2023-09-08T23:02:48.363Z,51.44
2023-09-08T23:05:16.497Z,51.04
2023-09-08T23:07:45.402Z,51.14
2023-09-08T23:10:13.606Z,51.37
2023-09-08T23:12:42.222Z,51.25
2023-09-08T23:15:10.992Z,50.99
2023-09-08T23:17:39.771Z,50.99
2023-09-08T23:20:16.055Z,51.16
2023-09-08T23:22:44.901Z,50.94
2023-09-08T23:25:13.307Z,51.25
2023-09-08T23:27:41.118Z,51.13
2023-09-08T23:30:10.154Z,50.92
2023-09-08T23:32:38.062Z,51.01
2023-09-08T23:35:08.409Z,51.18
2023-09-08T23:37:36.327Z,51.37
2023-09-08T23:40:08.543Z,51.20
2023-09-08T23:42:36.673Z,51.45
2023-09-08T23:45:05.936Z,51.13
2023-09-08T23:47:34.198Z,51.19
2023-09-08T23:50:02.105Z,51.15
2023-09-08T23:52:29.871Z,51.55
2023-09-08T23:54:57.699Z,51.40
2023-09-08T23:57:25.513Z,51.71
2023-09-08T23:59:53.433Z,51.44
